Time;durP1;ratioP1;P1;durP2;ratioP2;P2;SDS_P1;SDS_P2;PMS_P1;PMS_P2;Temp;Humidity;BMP_temperature;BMP_pressure;BME280_temperature;BME280_humidity;BME280_pressure;Samples;Min_cycle;Max_cycle;Signal;HPM_P1;HPM_P2
2024/01/11 07:28:12;;;;;;;;;;;;;;;-3.13;100.00;99864.30;112109;1249;22479;-53
2024/01/11 07:30:39;;;;;;;;;;;;;;;-3.09;100.00;99860.40;112222;1240;22495;-45
2024/01/11 07:33:06;;;;;;;;;;;;;;;-3.07;100.00;99856.11;113095;1239;23077;-46
2024/01/11 07:35:34;;;;;;;;;;;;;;;-3.04;100.00;99854.89;113064;1237;22480;-45
2024/01/11 07:38:01;;;;;;;;;;;;;;;-2.99;100.00;99851.70;113060;1237;22519;-47
2024/01/11 07:40:28;;;;;;;;;;;;;;;-2.94;100.00;99852.80;112867;1249;22460;-46
2024/01/11 07:42:55;;;;;;;;;;;;;;;-2.88;100.00;99834.29;112685;1240;23191;-46
2024/01/11 07:45:22;;;;;;;;;;;;;;;-2.82;100.00;99827.55;111577;1248;22468;-45
2024/01/11 07:47:49;;;;;;;;;;;;;;;-2.79;100.00;99826.02;112271;1246;23173;-46
2024/01/11 07:50:15;;;;;;;;;;;;;;;-2.75;100.00;99824.47;113097;1248;22523;-45
2024/01/11 07:52:42;;;;;;;;;;;;;;;-2.67;100.00;99811.67;113044;1249;22371;-46
2024/01/11 07:55:10;;;;;;;;;;;;;;;-2.61;100.00;99818.97;113047;1234;22375;-46
2024/01/11 07:57:37;;;;;;;;;;;;;;;-2.53;100.00;99820.84;111182;1239;22486;-46
2024/01/11 08:00:06;;;;;;;;;;;;;;;-2.49;100.00;99822.23;110257;1239;22501;-46
2024/01/11 08:02:39;;;;;;;;;;;;;;;-2.40;100.00;99815.63;110304;1237;24220;-59
2024/01/11 08:05:06;;;;;;;;;;;;;;;-2.31;100.00;99816.85;110415;1248;22472;-52
2024/01/11 08:07:32;;;;;;;;;;;;;;;-2.26;100.00;99810.59;110556;1249;24336;-52
2024/01/11 08:14:27;;;;;;;;;;;;;;;-2.09;100.00;99810.45;110457;1249;24214;-47
2024/01/11 08:16:54;;;;;;;;;;;;;;;-2.02;100.00;99811.44;111139;1249;22468;-52
2024/01/11 08:19:21;;;;;;;;;;;;;;;-1.94;100.00;99802.56;110434;1249;22573;-53
2024/01/11 08:21:48;;;;;;;;;;;;;;;-1.82;100.00;99802.70;110400;1249;23163;-52
2024/01/11 08:24:14;;;;;;;;;;;;;;;-1.76;100.00;99799.88;111708;1243;22475;-53
2024/01/11 08:26:41;;;;;;;;;;;;;;;-1.72;100.00;99806.22;112107;1244;22524;-51
2024/01/11 08:29:09;;;;;;;;;;;;;;;-1.71;100.00;99797.68;113074;1245;23161;-52
2024/01/11 08:31:36;;;;;;;;;;;;;;;-1.73;99.88;99802.04;111601;1249;24159;-46
2024/01/11 08:34:08;;;;;;;;;;;;;;;-1.79;99.74;99800.42;111430;1249;23254;-46
2024/01/11 08:36:38;;;;;;;;;;;;;;;-1.84;99.56;99792.39;111654;1238;22513;-47
2024/01/11 08:39:12;;;;;;;;;;;;;;;-1.80;100.00;99780.89;112951;1249;22441;-45
2024/01/11 08:41:38;;;;;;;;;;;;;;;-1.74;100.00;99778.77;112534;1236;22533;-45
2024/01/11 08:44:05;;;;;;;;;;;;;;;-1.68;99.94;99769.44;111945;1233;22540;-47
2024/01/11 08:46:35;;;;;;;;;;;;;;;-1.64;99.47;99769.56;111967;1238;22496;-46
2024/01/11 08:49:03;;;;;;;;;;;;;;;-1.62;99.03;99768.48;111643;1246;23268;-46
2024/01/11 08:51:30;;;;;;;;;;;;;;;-1.60;98.23;99768.54;110596;1248;22485;-47
2024/01/11 08:53:58;;;;;;;;;;;;;;;-1.61;98.54;99762.53;111658;1243;25177;-46
2024/01/11 08:56:30;;;;;;;;;;;;;;;-1.60;98.37;99759.33;111028;1249;22504;-51
2024/01/11 08:58:58;;;;;;;;;;;;;;;-1.58;98.35;99746.38;110718;1240;25338;-52
2024/01/11 09:01:29;;;;;;;;;;;;;;;-1.56;98.25;99745.92;112108;1239;22467;-52
2024/01/11 09:03:55;;;;;;;;;;;;;;;-1.53;97.95;99739.41;112925;1239;22384;-52
2024/01/11 09:06:22;;;;;;;;;;;;;;;-1.50;97.79;99720.70;113053;1246;23201;-53
2024/01/11 09:08:49;;;;;;;;;;;;;;;-1.44;97.90;99728.48;112693;1245;22488;-54
2024/01/11 09:11:16;;;;;;;;;;;;;;;-1.38;97.45;99716.06;112695;1249;22463;-52
2024/01/11 09:13:43;;;;;;;;;;;;;;;-1.33;97.67;99715.53;112295;1249;22493;-52
2024/01/11 09:16:13;;;;;;;;;;;;;;;-1.31;97.10;99718.01;110686;1233;23317;-52
2024/01/11 09:18:40;;;;;;;;;;;;;;;-1.30;97.04;99715.16;109960;1249;22726;-52
2024/01/11 09:21:12;;;;;;;;;;;;;;;-1.29;96.69;99710.04;110235;1237;25406;-52
2024/01/11 09:23:38;;;;;;;;;;;;;;;-1.27;96.61;99701.39;110900;1246;25349;-51
2024/01/11 09:26:06;;;;;;;;;;;;;;;-1.23;96.34;99685.64;111644;1249;23195;-52
2024/01/11 09:28:32;;;;;;;;;;;;;;;-1.17;96.38;99663.27;112198;1239;23120;-53
2024/01/11 09:30:59;;;;;;;;;;;;;;;-1.09;96.01;99648.52;112722;1249;23683;-53
2024/01/11 09:33:26;;;;;;;;;;;;;;;-0.99;95.50;99654.33;112605;1249;22520;-54
2024/01/11 09:35:54;;;;;;;;;;;;;;;-0.93;94.74;99666.71;113034;1240;22474;-54
2024/01/11 09:38:22;;;;;;;;;;;;;;;-0.94;94.27;99655.71;112743;1239;22510;-53
2024/01/11 09:41:21;;;;;;;;;;;;;;;-0.96;94.30;99643.66;111173;1249;23214;-53
2024/01/11 09:43:51;;;;;;;;;;;;;;;-0.91;94.25;99635.42;111722;1257;22907;-54
2024/01/11 09:46:24;;;;;;;;;;;;;;;-0.84;93.49;99643.59;111408;1257;24295;-53
2024/01/11 09:48:50;;;;;;;;;;;;;;;-0.71;93.20;99625.52;112022;1255;22458;-53
2024/01/11 09:51:17;;;;;;;;;;;;;;;-0.57;93.27;99617.09;111950;1253;23102;-53
2024/01/11 09:53:44;;;;;;;;;;;;;;;-0.43;92.38;99621.33;112050;1257;23272;-54
2024/01/11 09:56:11;;;;;;;;;;;;;;;-0.36;91.24;99629.93;112286;1257;23124;-54
2024/01/11 09:58:38;;;;;;;;;;;;;;;-0.38;90.96;99626.11;112267;1257;22418;-53
2024/01/11 10:01:09;;;;;;;;;;;;;;;-0.47;90.80;99620.16;112269;1248;22430;-54
2024/01/11 10:03:36;;;;;;;;;;;;;;;-0.60;91.31;99614.76;112076;1257;22452;-54
2024/01/11 10:06:04;;;;;;;;;;;;;;;-0.72;91.82;99614.17;112314;1257;22520;-47
2024/01/11 10:08:30;;;;;;;;;;;;;;;-0.79;92.53;99614.98;112300;1249;22597;-46
2024/01/11 10:10:57;;;;;;;;;;;;;;;-0.82;93.03;99614.69;112083;1257;22599;-47
2024/01/11 10:13:28;;;;;;;;;;;;;;;-0.81;93.64;99626.72;112229;1257;22450;-53
2024/01/11 10:16:24;;;;;;;;;;;;;;;-0.74;93.69;99612.73;112215;1247;22385;-53
2024/01/11 10:18:53;;;;;;;;;;;;;;;-0.62;93.59;99603.90;111104;1250;22784;-54
2024/01/11 10:21:20;;;;;;;;;;;;;;;-0.52;93.32;99601.84;110576;1243;25269;-55
2024/01/11 10:23:48;;;;;;;;;;;;;;;-0.45;93.14;99590.09;109926;1254;22501;-52
2024/01/11 10:26:15;;;;;;;;;;;;;;;-0.34;93.21;99585.98;110466;1254;22479;-53
2024/01/11 10:28:44;;;;;;;;;;;;;;;-0.28;92.78;99582.92;111443;1254;22736;-53
2024/01/11 10:31:11;;;;;;;;;;;;;;;-0.28;92.39;99571.96;110153;1254;24248;-54
2024/01/11 10:33:38;;;;;;;;;;;;;;;-0.26;92.06;99572.68;111876;1244;25294;-53
2024/01/11 10:36:09;;;;;;;;;;;;;;;-0.30;92.23;99573.44;109797;1254;23244;-53
2024/01/11 10:38:38;;;;;;;;;;;;;;;-0.29;92.34;99570.55;110410;1254;24193;-53
2024/01/11 10:41:06;;;;;;;;;;;;;;;-0.29;92.57;99554.95;109647;1254;287303;-52
2024/01/11 10:43:36;;;;;;;;;;;;;;;-0.28;92.72;99553.61;110200;1243;25361;-53
2024/01/11 10:46:06;;;;;;;;;;;;;;;-0.26;93.27;99542.86;109803;1255;25639;-53
2024/01/11 10:48:43;;;;;;;;;;;;;;;-0.24;93.30;99538.79;109714;1251;23119;-54
2024/01/11 10:51:12;;;;;;;;;;;;;;;-0.25;93.66;99535.70;110293;1242;22558;-53
2024/01/11 10:53:45;;;;;;;;;;;;;;;-0.22;93.92;99537.16;110806;1255;23322;-54
2024/01/11 10:56:13;;;;;;;;;;;;;;;-0.19;94.36;99530.23;110738;1248;24019;-54
2024/01/11 10:58:40;;;;;;;;;;;;;;;-0.14;94.01;99529.20;111019;1249;22825;-54
2024/01/11 11:01:08;;;;;;;;;;;;;;;-0.11;94.30;99517.95;111265;1249;23354;-54
2024/01/11 11:03:35;;;;;;;;;;;;;;;-0.04;94.46;99510.45;111817;1239;23565;-53
2024/01/11 11:06:02;;;;;;;;;;;;;;;0.09;93.95;99516.14;113023;1249;22380;-53
2024/01/11 11:08:29;;;;;;;;;;;;;;;0.16;93.07;99506.58;111726;1249;22595;-54
2024/01/11 11:10:57;;;;;;;;;;;;;;;0.17;92.24;99490.83;111026;1249;22967;-53
2024/01/11 11:13:24;;;;;;;;;;;;;;;0.14;92.28;99492.81;111002;1248;24178;-47
2024/01/11 11:15:57;;;;;;;;;;;;;;;0.13;92.36;99488.15;110130;1249;22481;-48
2024/01/11 11:18:27;;;;;;;;;;;;;;;0.08;92.43;99477.20;110513;1248;25132;-48
2024/01/11 11:20:55;;;;;;;;;;;;;;;0.01;92.68;99474.09;110651;1249;22475;-47
2024/01/11 11:23:22;;;;;;;;;;;;;;;-0.02;93.16;99469.54;112999;1241;22445;-45
2024/01/11 11:25:48;;;;;;;;;;;;;;;-0.04;93.09;99476.86;111234;1239;22690;-46
2024/01/11 11:28:16;;;;;;;;;;;;;;;-0.10;92.84;99475.30;111081;1248;22556;-48
2024/01/11 11:30:47;;;;;;;;;;;;;;;-0.17;93.13;99466.86;111016;1240;25363;-47
2024/01/11 11:33:18;;;;;;;;;;;;;;;-0.22;93.50;99462.09;110564;1249;22631;-53
2024/01/11 11:35:46;;;;;;;;;;;;;;;-0.27;93.74;99446.52;111161;1249;22459;-53
2024/01/11 11:38:22;;;;;;;;;;;;;;;-0.29;94.05;99453.17;111169;1248;22504;-47
2024/01/11 11:40:51;;;;;;;;;;;;;;;-0.30;94.24;99452.25;110669;1249;24185;-46
2024/01/11 11:43:18;;;;;;;;;;;;;;;-0.33;94.22;99455.77;111276;1249;22489;-53
2024/01/11 11:45:45;;;;;;;;;;;;;;;-0.38;95.30;99444.31;111268;1249;22485;-47
2024/01/11 11:48:38;;;;;;;;;;;;;;;-0.40;95.95;99444.91;110954;1249;22595;-47
2024/01/11 11:51:12;;;;;;;;;;;;;;;-0.41;96.22;99442.66;110808;1237;25297;-53
2024/01/11 11:53:42;;;;;;;;;;;;;;;-0.42;96.23;99434.05;110391;1249;22604;-53
2024/01/11 11:56:10;;;;;;;;;;;;;;;-0.43;96.53;99429.94;111423;1249;26957;-46
2024/01/11 11:58:38;;;;;;;;;;;;;;;-0.41;96.41;99427.61;111495;1249;22474;-50
2024/01/11 12:01:06;;;;;;;;;;;;;;;-0.39;96.40;99431.09;110086;1249;24804;-52
2024/01/11 12:03:35;;;;;;;;;;;;;;;-0.37;96.08;99423.42;110889;1249;22561;-53
2024/01/11 12:06:03;;;;;;;;;;;;;;;-0.38;95.73;99416.89;110447;1249;23152;-48
2024/01/11 12:08:30;;;;;;;;;;;;;;;-0.41;95.22;99417.81;110819;1249;25910;-47
2024/01/11 12:10:57;;;;;;;;;;;;;;;-0.44;95.67;99410.71;110788;1249;26591;-48
2024/01/11 12:13:24;;;;;;;;;;;;;;;-0.46;95.56;99404.48;111381;1249;22940;-54
2024/01/11 12:15:51;;;;;;;;;;;;;;;-0.47;95.76;99401.70;111059;1249;23914;-54
2024/01/11 12:18:18;;;;;;;;;;;;;;;-0.47;95.46;99396.91;111378;1249;22549;-53
2024/01/11 12:20:45;;;;;;;;;;;;;;;-0.49;95.92;99399.60;113054;1249;22379;-53
2024/01/11 12:23:13;;;;;;;;;;;;;;;-0.51;96.16;99397.14;112930;1249;23353;-53
2024/01/11 12:25:40;;;;;;;;;;;;;;;-0.54;96.67;99390.19;111731;1249;22506;-53
2024/01/11 12:28:07;;;;;;;;;;;;;;;-0.56;96.97;99391.36;110382;1249;22492;-54
2024/01/11 12:30:34;;;;;;;;;;;;;;;-0.56;97.30;99392.19;111705;1249;23171;-47
2024/01/11 12:33:01;;;;;;;;;;;;;;;-0.56;97.81;99389.13;113066;1249;22382;-46
2024/01/11 12:35:29;;;;;;;;;;;;;;;-0.54;97.99;99389.85;112981;1249;22398;-47
2024/01/11 12:38:06;;;;;;;;;;;;;;;-0.54;98.09;99385.55;112905;1249;22360;-45
2024/01/11 12:40:40;;;;;;;;;;;;;;;-0.56;97.90;99388.09;113059;1249;23052;-45
2024/01/11 12:43:07;;;;;;;;;;;;;;;-0.59;98.02;99388.84;113012;1244;23326;-47
2024/01/11 12:45:34;;;;;;;;;;;;;;;-0.62;98.41;99386.52;111990;1249;22523;-49
2024/01/11 12:48:03;;;;;;;;;;;;;;;-0.65;98.82;99387.11;110939;1249;24175;-53
2024/01/11 12:50:33;;;;;;;;;;;;;;;-0.67;99.08;99377.83;111737;1249;22534;-53
2024/01/11 12:53:06;;;;;;;;;;;;;;;-0.67;99.51;99377.98;110443;1249;22470;-53
2024/01/11 12:55:34;;;;;;;;;;;;;;;-0.68;99.79;99375.91;110887;1249;22476;-53
2024/01/11 12:58:11;;;;;;;;;;;;;;;-0.70;99.80;99368.14;110325;1249;22486;-53
2024/01/11 13:00:38;;;;;;;;;;;;;;;-0.70;99.97;99361.98;110188;1249;23862;-52
2024/01/11 13:03:05;;;;;;;;;;;;;;;-0.68;100.00;99362.72;110716;1238;22534;-48
2024/01/11 13:05:35;;;;;;;;;;;;;;;-0.69;100.00;99358.05;110116;1248;22479;-47
2024/01/11 13:08:03;;;;;;;;;;;;;;;-0.70;100.00;99354.77;110503;1249;22490;-48
2024/01/11 13:10:31;;;;;;;;;;;;;;;-0.73;100.00;99353.50;110323;1249;22490;-47
2024/01/11 13:12:58;;;;;;;;;;;;;;;-0.75;100.00;99354.44;110023;1249;25486;-54
2024/01/11 13:15:36;;;;;;;;;;;;;;;-0.79;100.00;99347.30;110578;1249;22497;-52
2024/01/11 13:18:04;;;;;;;;;;;;;;;-0.82;100.00;99345.19;110022;1249;26424;-46
2024/01/11 13:20:32;;;;;;;;;;;;;;;-0.83;100.00;99342.73;110524;1249;26591;-52
2024/01/11 13:23:12;;;;;;;;;;;;;;;-0.87;100.00;99343.98;110373;1249;22970;-47
2024/01/11 13:25:42;;;;;;;;;;;;;;;-0.93;100.00;99346.88;110535;1249;24191;-46
2024/01/11 13:28:11;;;;;;;;;;;;;;;-0.98;100.00;99334.40;110236;1249;22519;-46
2024/01/11 13:30:39;;;;;;;;;;;;;;;-1.01;100.00;99323.86;110009;1249;22487;-47
2024/01/11 13:33:07;;;;;;;;;;;;;;;-1.01;100.00;99332.08;109877;1249;22511;-52
2024/01/11 13:35:35;;;;;;;;;;;;;;;-1.02;100.00;99323.67;110818;1249;22482;-47
2024/01/11 13:38:02;;;;;;;;;;;;;;;-1.06;100.00;99323.37;110033;1249;22840;-46
2024/01/11 13:40:30;;;;;;;;;;;;;;;-1.13;100.00;99320.09;110208;1249;22510;-46
2024/01/11 13:42:57;;;;;;;;;;;;;;;-1.19;100.00;99320.59;110378;1249;22509;-47
2024/01/11 13:45:27;;;;;;;;;;;;;;;-1.24;100.00;99322.14;110403;1249;26651;-51
2024/01/11 13:47:54;;;;;;;;;;;;;;;-1.29;100.00;99318.20;110407;1249;24178;-54
2024/01/11 13:50:23;;;;;;;;;;;;;;;-1.34;100.00;99321.33;110073;1249;22476;-47
2024/01/11 13:52:52;;;;;;;;;;;;;;;-1.36;100.00;99316.27;110621;1249;25841;-46
2024/01/11 13:55:21;;;;;;;;;;;;;;;-1.38;100.00;99318.45;110877;1249;23125;-47
2024/01/11 13:57:50;;;;;;;;;;;;;;;-1.41;100.00;99314.06;110379;1249;24699;-53
2024/01/11 14:00:18;;;;;;;;;;;;;;;-1.43;100.00;99317.60;110663;1249;22485;-53
2024/01/11 14:02:45;;;;;;;;;;;;;;;-1.47;100.00;99322.95;110241;1249;26494;-51
2024/01/11 14:05:13;;;;;;;;;;;;;;;-1.48;100.00;99329.75;109990;1248;25239;-53
2024/01/11 14:07:41;;;;;;;;;;;;;;;-1.50;100.00;99325.90;109795;1249;24274;-45
2024/01/11 14:10:11;;;;;;;;;;;;;;;-1.51;100.00;99331.16;110332;1249;26445;-46
2024/01/11 14:12:38;;;;;;;;;;;;;;;-1.54;100.00;99328.70;110386;1249;25923;-49
2024/01/11 14:15:06;;;;;;;;;;;;;;;-1.57;100.00;99327.23;110054;1249;22617;-52
2024/01/11 14:17:33;;;;;;;;;;;;;;;-1.61;100.00;99322.83;110518;1249;25191;-46
2024/01/11 14:20:01;;;;;;;;;;;;;;;-1.64;100.00;99325.44;110556;1249;22483;-52
2024/01/11 14:22:28;;;;;;;;;;;;;;;-1.67;100.00;99321.61;112254;1249;22617;-53
2024/01/11 14:24:55;;;;;;;;;;;;;;;-1.67;100.00;99327.77;110900;1249;22514;-45
2024/01/11 14:27:22;;;;;;;;;;;;;;;-1.69;100.00;99322.73;110250;1249;22492;-51
2024/01/11 14:29:49;;;;;;;;;;;;;;;-1.70;100.00;99323.73;110020;1249;25181;-53
2024/01/11 14:32:16;;;;;;;;;;;;;;;-1.71;100.00;99320.61;110543;1249;22480;-52
2024/01/11 14:35:03;;;;;;;;;;;;;;;-1.75;100.00;99319.63;110521;1249;24344;-47
2024/01/11 14:37:31;;;;;;;;;;;;;;;-1.78;100.00;99308.08;110164;1249;22710;-47
2024/01/11 14:39:59;;;;;;;;;;;;;;;-1.80;100.00;99308.34;109897;1249;22521;-48
2024/01/11 14:42:26;;;;;;;;;;;;;;;-1.80;100.00;99305.94;110340;1248;22527;-47
2024/01/11 14:44:53;;;;;;;;;;;;;;;-1.81;100.00;99307.09;110440;1249;22509;-51
2024/01/11 14:47:21;;;;;;;;;;;;;;;-1.83;100.00;99303.27;110129;1249;25286;-46
2024/01/11 14:49:48;;;;;;;;;;;;;;;-1.85;100.00;99305.45;110270;1249;25348;-52
2024/01/11 14:52:14;;;;;;;;;;;;;;;-1.88;100.00;99305.68;110449;1249;25331;-45
2024/01/11 14:54:45;;;;;;;;;;;;;;;-1.90;100.00;99307.67;110634;1249;24185;-47
2024/01/11 14:57:13;;;;;;;;;;;;;;;-1.90;100.00;99311.09;110738;1249;22632;-52
2024/01/11 14:59:39;;;;;;;;;;;;;;;-1.92;100.00;99309.48;110260;1249;22614;-54
2024/01/11 15:02:07;;;;;;;;;;;;;;;-1.94;100.00;99309.23;110433;1249;25406;-54
2024/01/11 15:04:34;;;;;;;;;;;;;;;-1.98;100.00;99309.61;110277;1249;22620;-53
2024/01/11 15:07:00;;;;;;;;;;;;;;;-2.01;100.00;99311.56;110241;1249;25251;-53
2024/01/11 15:09:28;;;;;;;;;;;;;;;-2.05;100.00;99308.20;110089;1249;22504;-53
2024/01/11 15:11:55;;;;;;;;;;;;;;;-2.08;100.00;99307.91;110079;1249;26452;-54
2024/01/11 15:14:22;;;;;;;;;;;;;;;-2.10;100.00;99306.80;109926;1249;25307;-49
2024/01/11 15:16:50;;;;;;;;;;;;;;;-2.11;100.00;99304.02;110487;1249;23852;-47
2024/01/11 15:19:17;;;;;;;;;;;;;;;-2.12;100.00;99299.03;110564;1249;26457;-47
2024/01/11 15:21:44;;;;;;;;;;;;;;;-2.14;100.00;99290.09;110192;1249;25180;-52
